Time;durP1;ratioP1;P1;durP2;ratioP2;P2;SDS_P1;SDS_P2;PMS_P1;PMS_P2;Temp;Humidity;BMP_temperature;BMP_pressure;BME280_temperature;BME280_humidity;BME280_pressure;Samples;Min_cycle;Max_cycle;Signal;HPM_P1;HPM_P2
2021/12/12 00:01:27;;;;;;;7.43;5.00;;;5.90;99.90;;;;;;7404321;19;20311;-52
2021/12/12 00:04:04;;;;;;;5.95;4.78;;;5.90;99.90;;;;;;7400937;19;20124;-52
2021/12/12 00:06:34;;;;;;;5.30;4.22;;;5.90;99.90;;;;;;7400957;19;20175;-52
2021/12/12 00:09:11;;;;;;;4.43;3.70;;;5.70;99.90;;;;;;7408991;19;20257;-52
2021/12/12 00:11:39;;;;;;;4.70;3.72;;;5.60;99.90;;;;;;7404344;19;20131;-51
2021/12/12 00:14:12;;;;;;;5.45;4.38;;;5.40;99.90;;;;;;7398734;19;20261;-52
2021/12/12 00:16:42;;;;;;;4.38;3.80;;;5.20;99.90;;;;;;7403070;19;20116;-51
2021/12/12 00:19:09;;;;;;;4.95;3.90;;;5.20;99.90;;;;;;7402301;19;20375;-52
2021/12/12 00:21:38;;;;;;;4.93;4.25;;;5.10;99.90;;;;;;7388265;19;20116;-52
2021/12/12 00:24:12;;;;;;;4.75;3.38;;;5.30;99.90;;;;;;7396149;19;20232;-52
2021/12/12 00:26:43;;;;;;;5.28;3.95;;;5.40;99.90;;;;;;7401666;19;20124;-52
2021/12/12 00:29:14;;;;;;;4.85;3.85;;;5.40;99.90;;;;;;7402261;19;20116;-52
2021/12/12 00:31:44;;;;;;;4.97;3.78;;;5.30;99.90;;;;;;7390539;19;20159;-53
2021/12/12 00:34:10;;;;;;;4.68;3.92;;;5.30;99.90;;;;;;7402507;19;20173;-52
2021/12/12 00:36:41;;;;;;;4.32;3.92;;;5.20;99.90;;;;;;7405549;19;20124;-52
2021/12/12 00:39:17;;;;;;;4.30;3.70;;;5.20;99.90;;;;;;7404152;19;20123;-52
2021/12/12 00:41:58;;;;;;;4.78;3.38;;;5.10;99.90;;;;;;7404326;19;20374;-52
2021/12/12 00:44:31;;;;;;;5.45;4.28;;;5.30;99.90;;;;;;7388042;19;20128;-52
2021/12/12 00:47:01;;;;;;;11.38;4.82;;;5.20;99.90;;;;;;7403007;19;20124;-52
2021/12/12 00:49:37;;;;;;;5.63;3.80;;;5.30;99.90;;;;;;7388574;19;20149;-52
2021/12/12 00:52:14;;;;;;;6.72;4.00;;;5.40;99.90;;;;;;7401096;19;20111;-52
2021/12/12 00:54:42;;;;;;;6.10;4.65;;;5.60;99.90;;;;;;7401230;19;20148;-52
2021/12/12 00:57:11;;;;;;;4.07;3.65;;;5.70;99.90;;;;;;7401585;19;20115;-53
2021/12/12 00:59:39;;;;;;;4.68;3.53;;;5.80;99.90;;;;;;7398032;19;20650;-52
2021/12/12 01:02:12;;;;;;;4.40;3.92;;;5.80;99.90;;;;;;7395364;19;20116;-51
2021/12/12 01:04:46;;;;;;;7.45;4.95;;;5.70;99.90;;;;;;7402499;19;20119;-52
2021/12/12 01:07:15;;;;;;;4.97;4.30;;;5.90;99.90;;;;;;7399437;19;20120;-54
2021/12/12 01:09:50;;;;;;;4.22;3.67;;;5.60;99.90;;;;;;7402276;19;20130;-52
2021/12/12 01:12:24;;;;;;;6.40;4.65;;;5.60;99.90;;;;;;7401750;19;20135;-51
2021/12/12 01:14:55;;;;;;;12.52;4.55;;;5.60;99.90;;;;;;7396030;19;20322;-51
2021/12/12 01:17:27;;;;;;;4.00;3.70;;;5.60;99.90;;;;;;7395269;19;20132;-51
2021/12/12 01:19:58;;;;;;;4.28;3.83;;;5.40;99.90;;;;;;7375646;19;20124;-51
2021/12/12 01:22:35;;;;;;;8.85;4.60;;;5.30;99.90;;;;;;7381557;19;20119;-51
2021/12/12 01:25:13;;;;;;;4.60;4.20;;;5.30;99.90;;;;;;7397734;19;20375;-52
2021/12/12 01:27:42;;;;;;;6.57;4.45;;;5.50;99.90;;;;;;7399374;19;20123;-52
2021/12/12 01:30:12;;;;;;;5.00;4.45;;;5.70;99.90;;;;;;7396526;19;20120;-51
2021/12/12 01:32:47;;;;;;;5.55;4.40;;;5.60;99.90;;;;;;7395892;19;20134;-52
2021/12/12 01:35:18;;;;;;;5.38;4.25;;;5.60;99.90;;;;;;7397049;19;20136;-51
2021/12/12 01:38:51;;;;;;;7.45;4.72;;;5.60;99.90;;;;;;7392591;19;20124;-52
2021/12/12 01:40:40;;;;;;;6.20;5.38;;;5.70;99.90;;;;;;7400631;19;20226;-52
2021/12/12 01:43:20;;;;;;;7.97;4.80;;;5.50;99.90;;;;;;7402875;19;20417;-51
2021/12/12 01:45:51;;;;;;;5.43;4.65;;;5.50;99.90;;;;;;7392317;19;20303;-52
2021/12/12 01:48:23;;;;;;;4.63;4.05;;;5.40;99.90;;;;;;7396534;19;20124;-52
2021/12/12 01:51:01;;;;;;;7.40;4.70;;;5.50;99.90;;;;;;7373849;19;20138;-49
2021/12/12 01:53:36;;;;;;;5.40;4.72;;;5.30;99.90;;;;;;7405943;19;20990;-49
2021/12/12 01:56:11;;;;;;;5.63;4.68;;;5.40;99.90;;;;;;7395825;19;20119;-49
2021/12/12 01:58:42;;;;;;;5.82;4.43;;;5.50;99.90;;;;;;7399060;19;21008;-49
2021/12/12 02:01:14;;;;;;;7.60;4.57;;;5.50;99.90;;;;;;7400416;19;20128;-49
2021/12/12 02:03:46;;;;;;;8.77;5.10;;;5.40;99.90;;;;;;7390790;19;20134;-49
2021/12/12 02:06:19;;;;;;;7.18;5.20;;;5.40;99.90;;;;;;7400511;19;20182;-49
2021/12/12 02:08:49;;;;;;;6.10;4.72;;;5.40;99.90;;;;;;7401014;19;20128;-49
2021/12/12 02:11:23;;;;;;;7.57;4.50;;;5.30;99.90;;;;;;7396759;19;20119;-49
2021/12/12 02:13:59;;;;;;;7.63;5.00;;;5.20;99.90;;;;;;7399567;19;20139;-49
2021/12/12 02:16:33;;;;;;;4.75;3.83;;;5.20;99.90;;;;;;7398160;19;20127;-49
2021/12/12 02:19:04;;;;;;;8.68;4.53;;;5.10;99.90;;;;;;7397026;19;20119;-49
2021/12/12 02:21:54;;;;;;;5.40;4.38;;;5.10;99.90;;;;;;7383823;19;20410;-51
2021/12/12 02:35:31;;;;;;;4.85;4.18;;;5.30;99.90;;;;;;7392812;19;20135;-52
2021/12/12 02:37:59;;;;;;;7.90;4.82;;;5.40;99.90;;;;;;7403894;19;20315;-52
2021/12/12 02:40:35;;;;;;;5.60;4.75;;;5.50;99.90;;;;;;7401410;19;20124;-52
2021/12/12 02:43:08;;;;;;;5.18;4.55;;;5.40;99.90;;;;;;7400639;19;20175;-53
2021/12/12 02:45:36;;;;;;;5.00;4.00;;;5.40;99.90;;;;;;7397919;19;20139;-52
2021/12/12 02:48:05;;;;;;;5.28;4.32;;;5.50;99.90;;;;;;7400108;19;20130;-52
2021/12/12 02:50:41;;;;;;;6.45;4.65;;;5.60;99.90;;;;;;7390220;19;20203;-52
2021/12/12 02:53:22;;;;;;;6.10;4.70;;;5.60;99.90;;;;;;7408371;19;20128;-52
2021/12/12 02:56:00;;;;;;;7.25;4.32;;;5.60;99.90;;;;;;7396259;19;20542;-52
2021/12/12 02:58:29;;;;;;;4.85;3.30;;;5.60;99.90;;;;;;7396873;19;20127;-52
2021/12/12 03:01:30;;;;;;;7.60;5.05;;;5.50;99.90;;;;;;7405306;19;20131;-52
2021/12/12 03:03:59;;;;;;;3.95;3.25;;;5.40;99.90;;;;;;7403096;19;20166;-52
2021/12/12 03:06:34;;;;;;;5.63;3.53;;;5.20;99.90;;;;;;7404791;19;20339;-52
2021/12/12 03:09:08;;;;;;;11.82;4.75;;;5.30;99.90;;;;;;7402485;19;20120;-52
2021/12/12 03:11:34;;;;;;;5.00;4.35;;;5.20;99.90;;;;;;7400526;19;20280;-52
2021/12/12 03:14:01;;;;;;;5.32;3.63;;;5.20;99.90;;;;;;7404484;19;20827;-52
2021/12/12 03:16:29;;;;;;;3.65;3.17;;;5.00;99.90;;;;;;7407309;19;20108;-52
2021/12/12 03:18:58;;;;;;;3.92;3.47;;;5.00;99.90;;;;;;7399593;19;20274;-52
2021/12/12 03:21:32;;;;;;;4.90;3.40;;;5.00;99.90;;;;;;7402051;19;20121;-49
2021/12/12 03:24:09;;;;;;;5.53;2.90;;;4.80;99.90;;;;;;7405669;19;20318;-49
2021/12/12 03:26:36;;;;;;;3.42;3.13;;;4.80;99.90;;;;;;7403401;19;20115;-49
2021/12/12 03:29:06;;;;;;;6.30;4.40;;;4.70;99.90;;;;;;7406990;19;21116;-49
2021/12/12 03:31:51;;;;;;;3.95;3.55;;;4.60;99.90;;;;;;7395970;19;20220;-49
2021/12/12 03:34:25;;;;;;;4.07;2.80;;;4.60;99.90;;;;;;7401124;19;20179;-49
2021/12/12 03:36:53;;;;;;;6.47;3.40;;;4.50;99.90;;;;;;7407209;19;20147;-49
2021/12/12 03:39:23;;;;;;;4.10;2.90;;;4.40;99.90;;;;;;7405373;19;20142;-49
2021/12/12 03:41:51;;;;;;;4.45;3.15;;;4.20;99.90;;;;;;7404755;19;20438;-49
2021/12/12 03:44:24;;;;;;;3.55;3.10;;;4.10;99.90;;;;;;7407644;19;20312;-49
2021/12/12 03:46:55;;;;;;;4.05;2.90;;;4.10;99.90;;;;;;7402065;19;20132;-49
2021/12/12 03:49:24;;;;;;;3.95;2.58;;;3.90;99.90;;;;;;7406053;19;20127;-49
2021/12/12 03:51:52;;;;;;;4.38;3.47;;;3.90;99.90;;;;;;7404469;19;20218;-49
2021/12/12 03:54:26;;;;;;;7.22;4.00;;;3.90;99.90;;;;;;7400465;19;20187;-49
2021/12/12 03:56:52;;;;;;;5.82;3.17;;;4.00;99.90;;;;;;7405551;19;20148;-49
2021/12/12 03:59:21;;;;;;;2.83;2.17;;;4.00;99.90;;;;;;7404669;19;20532;-51
2021/12/12 04:01:56;;;;;;;4.35;2.60;;;3.90;99.90;;;;;;7405806;19;20116;-52
2021/12/12 04:04:32;;;;;;;9.07;3.33;;;3.80;99.90;;;;;;7399827;19;20141;-52
2021/12/12 04:07:09;;;;;;;2.80;2.58;;;3.70;99.90;;;;;;7407799;19;20127;-52
2021/12/12 04:09:37;;;;;;;2.80;2.47;;;3.80;99.90;;;;;;7403205;19;20130;-52
2021/12/12 04:12:09;;;;;;;2.80;2.05;;;3.70;99.90;;;;;;7407882;19;20135;-52
2021/12/12 04:14:38;;;;;;;3.90;2.80;;;3.60;99.90;;;;;;7400944;19;20162;-51
2021/12/12 04:17:08;;;;;;;3.90;2.70;;;3.60;99.90;;;;;;7398762;19;20183;-51
2021/12/12 04:19:35;;;;;;;3.28;2.60;;;3.50;99.90;;;;;;7400501;19;20426;-51
2021/12/12 04:22:02;;;;;;;3.55;2.63;;;3.40;99.90;;;;;;7404105;19;20311;-51
2021/12/12 04:24:38;;;;;;;5.57;2.65;;;3.30;99.90;;;;;;7405261;19;20128;-52
2021/12/12 04:27:10;;;;;;;3.40;2.05;;;3.30;99.90;;;;;;7402138;19;20131;-52
2021/12/12 04:29:43;;;;;;;3.55;2.80;;;3.20;99.90;;;;;;7403565;19;20123;-52
2021/12/12 04:32:19;;;;;;;2.85;2.47;;;3.10;99.90;;;;;;7397636;19;20148;-52
2021/12/12 04:35:01;;;;;;;5.25;3.55;;;3.00;99.90;;;;;;7400435;19;20125;-51
2021/12/12 04:37:30;;;;;;;4.03;2.90;;;2.90;99.90;;;;;;7403515;19;20325;-51
2021/12/12 04:40:01;;;;;;;4.30;3.05;;;2.80;99.90;;;;;;7403726;19;20550;-51
2021/12/12 04:42:33;;;;;;;3.83;2.15;;;2.70;99.90;;;;;;7405357;19;20135;-51
2021/12/12 04:45:21;;;;;;;5.43;3.03;;;2.60;99.90;;;;;;7399441;19;20158;-51
2021/12/12 04:51:31;;;;;;;7.20;3.17;;;2.50;99.90;;;;;;7403908;19;20124;-51
2021/12/12 04:54:18;;;;;;;7.70;3.45;;;2.40;99.90;;;;;;7403700;19;20120;-51
2021/12/12 04:56:49;;;;;;;4.95;3.53;;;2.40;99.90;;;;;;7396981;19;20363;-51
2021/12/12 04:59:37;;;;;;;5.30;3.70;;;2.40;99.90;;;;;;7403095;19;20140;-51
2021/12/12 05:02:13;;;;;;;8.95;3.95;;;2.40;99.90;;;;;;7403696;19;20219;-51
2021/12/12 05:05:11;;;;;;;6.35;3.13;;;2.50;99.90;;;;;;7403819;19;20140;-51
2021/12/12 05:07:51;;;;;;;7.68;3.78;;;2.50;99.90;;;;;;7397485;19;20136;-51
2021/12/12 05:10:49;;;;;;;5.50;3.60;;;2.40;99.90;;;;;;7400840;19;20140;-51
2021/12/12 05:13:21;;;;;;;4.25;3.22;;;2.50;99.90;;;;;;7396080;19;20276;-51
2021/12/12 05:15:51;;;;;;;4.88;3.30;;;2.40;99.90;;;;;;7401211;19;20127;-51
2021/12/12 05:18:28;;;;;;;5.90;3.50;;;2.30;99.90;;;;;;7396217;19;20120;-52
2021/12/12 05:20:58;;;;;;;8.50;4.18;;;2.40;99.90;;;;;;7399497;19;20122;-51
2021/12/12 05:23:27;;;;;;;5.03;3.83;;;2.40;99.90;;;;;;7400267;19;20131;-52
2021/12/12 05:26:07;;;;;;;5.00;3.35;;;2.40;99.90;;;;;;7400786;19;20127;-51
2021/12/12 05:28:37;;;;;;;6.32;3.35;;;2.50;99.90;;;;;;7401685;19;20248;-52
2021/12/12 05:31:08;;;;;;;4.55;3.67;;;2.60;99.90;;;;;;7393228;19;20144;-51
2021/12/12 05:33:35;;;;;;;6.10;3.65;;;2.70;99.90;;;;;;7395950;19;20144;-51
2021/12/12 05:36:04;;;;;;;5.95;2.97;;;2.80;99.90;;;;;;7397320;19;20136;-52
2021/12/12 05:38:31;;;;;;;6.38;3.58;;;2.80;99.90;;;;;;7402145;19;20195;-52
2021/12/12 05:40:58;;;;;;;5.60;4.05;;;2.80;99.90;;;;;;7399357;19;20120;-51
2021/12/12 05:43:25;;;;;;;4.28;3.30;;;2.80;99.90;;;;;;7401262;19;20216;-51
2021/12/12 05:45:55;;;;;;;5.38;3.75;;;2.80;99.90;;;;;;7399319;19;20128;-51
2021/12/12 05:48:21;;;;;;;4.72;3.25;;;2.80;99.90;;;;;;7397463;19;20123;-52
2021/12/12 05:50:52;;;;;;;4.50;3.50;;;2.90;99.90;;;;;;7402562;19;20135;-51
2021/12/12 05:53:26;;;;;;;5.85;3.60;;;2.90;99.90;;;;;;7401603;19;20124;-51
2021/12/12 05:55:57;;;;;;;7.20;3.55;;;3.00;99.90;;;;;;7403474;19;20127;-51
2021/12/12 05:58:27;;;;;;;4.22;3.20;;;3.00;99.90;;;;;;7398994;19;20140;-51
2021/12/12 06:00:57;;;;;;;4.57;3.20;;;3.10;99.90;;;;;;7396682;19;20115;-51
2021/12/12 06:03:27;;;;;;;6.72;3.90;;;3.10;99.90;;;;;;7399376;19;20123;-51
2021/12/12 06:05:58;;;;;;;5.90;4.30;;;3.00;99.90;;;;;;7403363;19;20116;-52
2021/12/12 06:08:28;;;;;;;4.85;3.30;;;3.10;99.90;;;;;;7398574;19;20116;-52
2021/12/12 06:10:55;;;;;;;6.68;3.80;;;3.10;99.90;;;;;;7401797;19;20128;-52
2021/12/12 06:13:25;;;;;;;4.30;2.75;;;3.10;99.90;;;;;;7402272;19;20130;-51
2021/12/12 06:15:56;;;;;;;4.28;3.15;;;3.10;99.90;;;;;;7396885;19;20124;-51
2021/12/12 06:18:28;;;;;;;4.32;3.40;;;3.10;99.90;;;;;;7397376;19;20132;-52
2021/12/12 06:21:00;;;;;;;5.70;4.28;;;3.10;99.90;;;;;;7398614;19;20131;-52
2021/12/12 06:23:29;;;;;;;5.63;3.58;;;3.10;99.90;;;;;;7398482;19;20115;-52
2021/12/12 06:25:56;;;;;;;4.75;3.90;;;3.10;99.90;;;;;;7406664;19;20145;-52
2021/12/12 06:28:29;;;;;;;4.22;3.00;;;3.10;99.90;;;;;;7401218;19;20136;-51
2021/12/12 06:30:57;;;;;;;4.60;3.22;;;3.10;99.90;;;;;;7396832;19;20155;-50
2021/12/12 06:33:32;;;;;;;4.38;3.53;;;3.00;99.90;;;;;;7408625;19;20229;-51
2021/12/12 06:36:01;;;;;;;4.20;3.33;;;2.90;99.90;;;;;;7402362;19;20145;-52
2021/12/12 06:38:37;;;;;;;3.38;3.08;;;2.90;99.90;;;;;;7411204;19;20116;-51
2021/12/12 06:41:07;;;;;;;10.13;3.58;;;2.70;99.90;;;;;;7407244;19;20116;-51
2021/12/12 06:43:34;;;;;;;4.80;3.85;;;2.60;99.90;;;;;;7408971;19;20124;-51
2021/12/12 06:46:04;;;;;;;5.85;3.15;;;2.70;99.90;;;;;;7405658;19;20128;-52
2021/12/12 06:48:31;;;;;;;5.10;3.67;;;2.50;99.90;;;;;;7402904;19;20120;-52
2021/12/12 06:51:01;;;;;;;5.00;3.58;;;2.40;99.90;;;;;;7402231;19;20140;-52
2021/12/12 06:53:32;;;;;;;3.63;3.33;;;2.30;99.90;;;;;;7403475;19;20135;-51
2021/12/12 06:56:04;;;;;;;5.13;3.20;;;2.30;99.90;;;;;;7389789;19;20131;-51
2021/12/12 06:58:33;;;;;;;3.88;3.10;;;2.20;99.90;;;;;;7401708;19;20171;-52
2021/12/12 07:01:05;;;;;;;4.68;4.03;;;2.20;99.90;;;;;;7396793;19;20119;-51
2021/12/12 07:03:35;;;;;;;5.03;3.55;;;2.20;99.90;;;;;;7398690;19;20139;-51
2021/12/12 07:06:03;;;;;;;5.20;3.80;;;2.20;99.90;;;;;;7399020;19;20119;-51
2021/12/12 07:08:30;;;;;;;6.25;3.80;;;2.10;99.90;;;;;;7406834;19;20132;-51
2021/12/12 07:10:59;;;;;;;4.15;3.55;;;2.00;99.90;;;;;;7404450;19;20144;-51
2021/12/12 07:13:28;;;;;;;4.50;3.58;;;2.00;99.90;;;;;;7399797;19;20116;-50
2021/12/12 07:16:02;;;;;;;4.80;3.50;;;2.00;99.90;;;;;;7405169;19;20127;-51
2021/12/12 07:18:34;;;;;;;5.38;4.10;;;2.00;99.90;;;;;;7402146;19;20128;-51
2021/12/12 07:21:07;;;;;;;7.70;4.25;;;2.00;99.90;;;;;;7402285;19;20191;-51
2021/12/12 07:23:35;;;;;;;5.50;3.67;;;2.00;99.90;;;;;;7408124;19;20124;-52
2021/12/12 07:26:10;;;;;;;6.28;3.95;;;2.10;99.90;;;;;;7408162;19;20131;-51
2021/12/12 07:28:40;;;;;;;6.05;4.50;;;2.00;99.90;;;;;;7401086;19;20127;-51
2021/12/12 07:31:16;;;;;;;7.43;4.78;;;2.10;99.90;;;;;;7386978;19;20139;-51
2021/12/12 07:33:50;;;;;;;7.15;4.20;;;2.10;99.90;;;;;;7400043;19;20228;-50
2021/12/12 07:36:23;;;;;;;6.10;5.07;;;2.20;99.90;;;;;;7398393;19;20147;-51
2021/12/12 07:39:00;;;;;;;5.40;4.13;;;2.30;99.90;;;;;;7405600;19;20394;-51
2021/12/12 07:41:30;;;;;;;6.05;4.45;;;2.40;99.90;;;;;;7411330;19;20194;-51
2021/12/12 07:44:03;;;;;;;5.88;4.25;;;2.50;99.90;;;;;;7402963;19;20307;-50
2021/12/12 07:46:30;;;;;;;5.38;3.75;;;2.50;99.90;;;;;;7407377;19;20119;-50
2021/12/12 07:48:57;;;;;;;5.85;3.67;;;2.60;99.90;;;;;;7404416;19;20139;-51
2021/12/12 07:51:30;;;;;;;7.38;3.80;;;2.70;99.90;;;;;;7406888;19;20131;-51
2021/12/12 07:54:01;;;;;;;5.28;3.88;;;2.80;99.90;;;;;;7394990;19;20112;-51
2021/12/12 07:56:30;;;;;;;4.70;3.50;;;3.00;99.90;;;;;;7399418;19;20137;-51
2021/12/12 07:59:04;;;;;;;6.85;4.03;;;3.10;99.90;;;;;;7403928;19;20158;-50
2021/12/12 08:01:31;;;;;;;8.38;4.15;;;3.20;99.90;;;;;;7398726;19;20111;-51
2021/12/12 08:04:07;;;;;;;6.10;4.20;;;3.30;99.90;;;;;;7406433;19;20138;-51
2021/12/12 08:06:36;;;;;;;4.88;3.50;;;3.40;99.90;;;;;;7399474;19;20112;-51
2021/12/12 08:09:10;;;;;;;5.10;4.10;;;3.70;99.90;;;;;;7396257;19;20160;-51
2021/12/12 08:11:39;;;;;;;4.18;2.80;;;3.90;99.90;;;;;;7402452;19;20220;-51
2021/12/12 08:14:19;;;;;;;4.50;3.60;;;4.10;99.90;;;;;;7402962;19;20127;-51
2021/12/12 08:16:51;;;;;;;3.25;2.95;;;4.30;99.90;;;;;;7400753;19;20434;-51
2021/12/12 08:19:23;;;;;;;4.10;3.50;;;4.50;99.90;;;;;;7403939;19;20335;-51
2021/12/12 08:22:00;;;;;;;3.10;2.42;;;4.60;99.90;;;;;;7406095;19;20367;-51
2021/12/12 08:24:37;;;;;;;4.75;2.85;;;4.60;99.90;;;;;;7400204;19;20128;-51
2021/12/12 08:27:06;;;;;;;3.80;3.30;;;4.70;99.90;;;;;;7401788;19;20142;-52
2021/12/12 08:29:38;;;;;;;3.20;2.55;;;4.60;99.90;;;;;;7403596;19;20120;-52
2021/12/12 08:32:07;;;;;;;2.53;2.30;;;4.80;99.90;;;;;;7393745;19;20155;-51
2021/12/12 08:34:39;;;;;;;3.83;3.10;;;4.70;99.90;;;;;;7402515;19;20124;-51
2021/12/12 08:37:08;;;;;;;2.83;2.63;;;4.80;99.90;;;;;;7401827;19;20115;-51
2021/12/12 08:39:38;;;;;;;3.25;2.33;;;4.80;99.90;;;;;;7400719;19;20123;-52
2021/12/12 08:42:07;;;;;;;4.13;2.60;;;5.00;99.90;;;;;;7402692;19;20662;-52
2021/12/12 08:44:37;;;;;;;2.60;2.00;;;4.90;99.90;;;;;;7403949;19;20146;-50
2021/12/12 08:47:07;;;;;;;5.10;3.50;;;5.00;99.90;;;;;;7401416;19;20120;-51
2021/12/12 08:49:40;;;;;;;3.30;2.72;;;5.00;99.90;;;;;;7397798;19;20147;-51
2021/12/12 08:52:12;;;;;;;3.63;2.70;;;5.00;99.90;;;;;;7401241;19;20210;-51
2021/12/12 08:54:46;;;;;;;2.92;2.10;;;5.00;99.90;;;;;;7398421;19;20119;-51
2021/12/12 08:57:30;;;;;;;3.08;2.50;;;5.10;99.90;;;;;;7390408;19;20395;-51
2021/12/12 08:59:59;;;;;;;2.83;2.63;;;5.30;99.90;;;;;;7403536;19;20112;-50
2021/12/12 09:02:33;;;;;;;2.88;2.42;;;5.40;99.90;;;;;;7400333;19;20131;-51
2021/12/12 09:05:05;;;;;;;3.05;2.70;;;5.40;99.90;;;;;;7401030;19;20315;-52
2021/12/12 09:07:37;;;;;;;2.95;2.60;;;5.60;99.90;;;;;;7399620;19;20417;-52
2021/12/12 09:10:16;;;;;;;3.35;2.75;;;5.70;99.90;;;;;;7401892;19;20124;-52
2021/12/12 09:12:50;;;;;;;2.92;2.63;;;5.80;99.90;;;;;;7403497;19;20160;-52
2021/12/12 09:15:26;;;;;;;4.80;2.78;;;5.90;99.90;;;;;;7397588;19;20465;-52
2021/12/12 09:18:01;;;;;;;2.40;2.20;;;5.90;99.90;;;;;;7402190;19;20231;-52
2021/12/12 09:20:45;;;;;;;2.92;2.60;;;6.00;99.90;;;;;;7373594;19;20119;-52
2021/12/12 09:23:20;;;;;;;3.10;2.45;;;6.20;99.90;;;;;;7400004;19;20131;-51
2021/12/12 09:26:03;;;;;;;2.40;1.92;;;6.30;99.90;;;;;;7401311;19;20123;-52
2021/12/12 09:28:40;;;;;;;3.53;2.35;;;6.30;99.90;;;;;;7395270;19;20116;-51
2021/12/12 09:31:25;;;;;;;2.20;2.00;;;6.10;99.90;;;;;;7396716;19;20144;-51
2021/12/12 09:33:56;;;;;;;2.75;2.33;;;6.20;99.90;;;;;;7386711;19;20227;-52
2021/12/12 09:36:57;;;;;;;3.38;2.10;;;6.30;99.90;;;;;;7387009;19;20127;-51
2021/12/12 09:39:38;;;;;;;3.08;1.90;;;6.40;99.90;;;;;;7396031;19;20154;-49
2021/12/12 09:42:45;;;;;;;3.55;2.65;;;6.40;99.90;;;;;;7396964;19;20122;-49
2021/12/12 09:45:35;;;;;;;2.10;1.90;;;6.20;99.90;;;;;;7393496;19;20124;-49
2021/12/12 09:51:15;;;;;;;2.78;2.47;;;6.40;99.90;;;;;;7394280;19;20152;-49
2021/12/12 09:54:23;;;;;;;2.78;1.80;;;6.40;99.90;;;;;;7404225;19;20127;-49
2021/12/12 09:57:33;;;;;;;2.88;2.30;;;6.50;99.90;;;;;;7407969;19;20131;-49
2021/12/12 10:00:11;;;;;;;2.05;1.73;;;6.60;99.90;;;;;;7403466;19;20138;-49
2021/12/12 10:02:55;;;;;;;1.95;1.75;;;6.90;99.70;;;;;;7402315;19;20232;-49
2021/12/12 10:05:53;;;;;;;2.25;2.05;;;6.80;99.40;;;;;;7411511;19;20359;-49
2021/12/12 10:08:53;;;;;;;2.15;1.88;;;6.30;99.90;;;;;;7408525;19;20123;-49
2021/12/12 10:11:43;;;;;;;2.67;1.98;;;6.20;99.90;;;;;;7416472;19;20138;-49
2021/12/12 10:14:24;;;;;;;2.55;2.35;;;6.30;99.90;;;;;;7405543;19;20139;-49
2021/12/12 10:17:11;;;;;;;2.78;2.25;;;6.20;99.90;;;;;;7410887;19;20175;-49
2021/12/12 10:20:05;;;;;;;3.20;2.10;;;6.10;99.90;;;;;;7412597;19;20143;-49
2021/12/12 10:22:56;;;;;;;2.95;2.60;;;6.20;99.90;;;;;;7410868;19;20124;-49
2021/12/12 10:25:41;;;;;;;2.90;2.20;;;6.30;99.90;;;;;;7397516;19;20343;-49
2021/12/12 10:28:20;;;;;;;3.67;2.42;;;6.30;99.90;;;;;;7410414;19;20159;-49
2021/12/12 10:31:03;;;;;;;3.75;1.92;;;6.50;99.90;;;;;;7394325;19;21535;-50
2021/12/12 10:33:41;;;;;;;1.73;1.63;;;6.60;99.30;;;;;;7410430;19;20132;-49
2021/12/12 10:36:11;;;;;;;3.40;2.20;;;6.70;99.30;;;;;;7385379;19;20353;-49
2021/12/12 10:38:52;;;;;;;2.10;1.90;;;7.00;99.00;;;;;;7414269;19;20195;-49
2021/12/12 10:41:30;;;;;;;2.65;1.83;;;6.80;98.00;;;;;;7402702;19;20136;-49
2021/12/12 10:43:59;;;;;;;3.70;1.90;;;6.70;98.70;;;;;;7409205;19;20191;-49
2021/12/12 10:46:36;;;;;;;2.15;1.95;;;6.80;98.80;;;;;;7399572;19;20192;-51
2021/12/12 10:49:26;;;;;;;2.63;1.70;;;7.00;98.50;;;;;;7407006;19;20175;-49
2021/12/12 10:52:07;;;;;;;2.05;1.50;;;7.30;98.20;;;;;;7410964;19;20121;-49
2021/12/12 10:54:53;;;;;;;5.63;2.33;;;7.50;97.50;;;;;;7392327;19;20126;-49
2021/12/12 10:57:27;;;;;;;3.05;1.70;;;7.70;96.20;;;;;;7396168;19;20127;-49
2021/12/12 11:00:10;;;;;;;3.38;2.17;;;7.70;96.20;;;;;;7402494;19;20383;-49
2021/12/12 11:02:47;;;;;;;2.95;2.20;;;7.90;96.10;;;;;;7408262;19;20127;-49
2021/12/12 11:05:29;;;;;;;2.80;2.15;;;8.00;96.50;;;;;;7404164;19;20575;-49
2021/12/12 11:08:27;;;;;;;3.20;1.60;;;8.30;94.90;;;;;;7405233;19;21202;-49
2021/12/12 11:11:04;;;;;;;4.20;1.95;;;8.50;94.60;;;;;;7407602;19;20120;-49
2021/12/12 11:13:47;;;;;;;2.38;1.42;;;8.70;93.90;;;;;;7403561;19;20119;-49
2021/12/12 11:16:22;;;;;;;1.70;1.60;;;9.10;93.10;;;;;;7373015;19;20128;-49
2021/12/12 11:19:07;;;;;;;2.47;1.90;;;9.40;91.60;;;;;;7395720;19;20115;-49
2021/12/12 11:21:46;;;;;;;2.10;2.00;;;8.80;91.40;;;;;;7399683;19;20217;-49
2021/12/12 11:24:23;;;;;;;1.80;1.70;;;8.60;91.30;;;;;;7397417;19;20128;-49
2021/12/12 11:26:58;;;;;;;2.15;1.95;;;8.40;92.00;;;;;;7395805;19;20223;-49
2021/12/12 11:29:32;;;;;;;2.30;1.75;;;8.50;92.20;;;;;;7394676;19;20235;-49
2021/12/12 11:32:13;;;;;;;2.92;1.90;;;8.60;91.70;;;;;;7390281;19;20252;-49
2021/12/12 11:34:44;;;;;;;1.70;1.60;;;8.70;91.90;;;;;;7404215;19;20171;-49
2021/12/12 11:37:17;;;;;;;2.20;1.70;;;8.70;91.60;;;;;;7403086;19;20119;-49
2021/12/12 11:40:01;;;;;;;1.88;1.48;;;8.50;92.00;;;;;;7405402;19;20265;-52
2021/12/12 11:42:56;;;;;;;2.28;2.05;;;8.60;92.10;;;;;;7396853;19;20116;-52
2021/12/12 11:45:39;;;;;;;2.70;1.60;;;8.70;91.90;;;;;;7402059;19;20127;-52
2021/12/12 11:48:24;;;;;;;1.75;1.60;;;8.50;91.80;;;;;;7385671;19;20124;-52
2021/12/12 11:51:27;;;;;;;2.15;1.65;;;8.40;91.80;;;;;;7401222;19;20143;-51
2021/12/12 11:54:06;;;;;;;1.88;1.50;;;8.50;92.10;;;;;;7405971;19;20131;-52
2021/12/12 11:56:45;;;;;;;2.30;1.98;;;8.30;91.80;;;;;;7404826;19;20123;-52
2021/12/12 11:59:25;;;;;;;2.28;1.70;;;8.10;92.20;;;;;;7406728;19;20132;-52
2021/12/12 12:02:24;;;;;;;1.48;1.38;;;8.20;92.50;;;;;;7404501;19;20134;-52
2021/12/12 12:05:23;;;;;;;4.40;1.70;;;8.30;92.50;;;;;;7408854;19;20228;-52
2021/12/12 12:08:14;;;;;;;1.98;1.52;;;8.60;92.00;;;;;;7401465;19;20120;-52
2021/12/12 12:11:14;;;;;;;2.30;1.73;;;8.70;91.00;;;;;;7406372;19;20140;-53
2021/12/12 12:14:04;;;;;;;1.98;1.60;;;8.80;90.60;;;;;;7403188;19;20123;-52
2021/12/12 12:16:53;;;;;;;1.90;1.40;;;8.70;90.20;;;;;;7396581;19;20124;-52
2021/12/12 12:19:38;;;;;;;2.95;1.80;;;8.70;90.30;;;;;;7405318;19;20320;-54
2021/12/12 12:22:24;;;;;;;1.75;1.65;;;8.80;90.10;;;;;;7408685;19;20422;-52
2021/12/12 12:25:01;;;;;;;1.85;1.70;;;8.50;90.00;;;;;;7390736;19;20299;-53
2021/12/12 12:27:40;;;;;;;2.13;1.60;;;8.60;90.10;;;;;;7396416;19;20119;-52
2021/12/12 12:30:15;;;;;;;2.30;1.75;;;8.60;90.20;;;;;;7386948;19;20341;-52
2021/12/12 12:33:00;;;;;;;2.35;1.67;;;8.70;89.30;;;;;;7394719;19;20112;-52
2021/12/12 12:36:05;;;;;;;2.13;1.70;;;8.70;89.40;;;;;;7388802;19;20131;-52
2021/12/12 12:39:14;;;;;;;1.65;1.27;;;8.90;89.30;;;;;;7388000;19;20758;-52
2021/12/12 12:42:04;;;;;;;2.40;1.50;;;9.00;89.10;;;;;;7393166;19;20139;-51
2021/12/12 12:45:08;;;;;;;3.13;1.58;;;9.00;88.50;;;;;;7399711;19;20127;-51
2021/12/12 12:47:41;;;;;;;2.55;1.58;;;8.80;88.20;;;;;;7403164;19;20124;-51
2021/12/12 12:50:31;;;;;;;3.00;1.38;;;8.80;88.70;;;;;;7397101;19;20350;-52
2021/12/12 12:53:17;;;;;;;1.90;1.30;;;8.90;87.90;;;;;;7404165;19;20128;-52
2021/12/12 12:56:08;;;;;;;1.75;1.50;;;8.90;88.20;;;;;;7391323;19;20272;-52
2021/12/12 12:58:46;;;;;;;1.70;1.60;;;8.50;88.00;;;;;;7403757;19;20128;-52
2021/12/12 13:01:32;;;;;;;2.47;1.90;;;8.30;88.90;;;;;;7393078;19;20124;-52
2021/12/12 13:04:24;;;;;;;1.42;1.30;;;8.30;88.90;;;;;;7399831;19;20119;-52
2021/12/12 13:07:02;;;;;;;2.55;1.75;;;8.20;89.60;;;;;;7403438;19;20212;-52
2021/12/12 13:09:47;;;;;;;1.98;1.88;;;8.20;90.20;;;;;;7394618;19;20126;-51
2021/12/12 13:12:37;;;;;;;2.33;1.40;;;8.30;89.80;;;;;;7400594;19;20166;-52
2021/12/12 13:15:15;;;;;;;2.50;1.70;;;8.40;89.80;;;;;;7368539;19;20621;-52
2021/12/12 13:18:20;;;;;;;1.80;1.20;;;8.30;90.30;;;;;;7361765;19;22628;-52
2021/12/12 13:21:03;;;;;;;1.42;1.33;;;8.20;89.80;;;;;;7400157;19;20140;-52
2021/12/12 13:23:56;;;;;;;2.38;1.60;;;8.30;90.40;;;;;;7398383;19;20151;-52
2021/12/12 13:26:52;;;;;;;2.40;1.80;;;8.50;90.10;;;;;;7393371;19;20127;-51
2021/12/12 13:29:53;;;;;;;2.25;1.40;;;8.20;89.40;;;;;;7401506;19;20120;-52
2021/12/12 13:32:35;;;;;;;2.10;1.70;;;7.90;90.50;;;;;;7392397;19;20144;-51
2021/12/12 13:35:16;;;;;;;2.15;1.60;;;8.10;91.10;;;;;;7396913;19;20398;-52
2021/12/12 13:38:10;;;;;;;1.42;1.17;;;8.10;90.90;;;;;;7403260;19;20127;-52
2021/12/12 13:40:44;;;;;;;2.08;1.58;;;8.20;90.80;;;;;;7401261;19;20127;-52
2021/12/12 13:43:11;;;;;;;1.55;1.42;;;8.10;90.50;;;;;;7400930;19;20134;-51
2021/12/12 13:45:55;;;;;;;3.22;1.48;;;8.20;90.50;;;;;;7383433;19;20346;-52
2021/12/12 13:48:43;;;;;;;7.80;3.55;;;8.20;90.50;;;;;;7400957;19;20158;-52
2021/12/12 13:51:39;;;;;;;2.40;1.77;;;7.90;90.40;;;;;;7382427;19;20148;-52
2021/12/12 13:54:14;;;;;;;1.88;1.50;;;8.00;90.80;;;;;;7398989;19;20133;-51
2021/12/12 13:57:02;;;;;;;2.50;1.90;;;8.00;90.60;;;;;;7398704;19;20119;-52
2021/12/12 13:59:47;;;;;;;4.50;1.95;;;8.10;90.80;;;;;;7395335;19;20124;-52
2021/12/12 14:02:16;;;;;;;2.88;1.58;;;8.10;90.80;;;;;;7392994;19;20116;-51
2021/12/12 14:05:07;;;;;;;2.20;1.45;;;8.00;91.30;;;;;;7392009;19;20172;-52